createdAt,value
2023-01-09T00:01:37.318Z,7.43
2023-01-09T00:04:04.186Z,7.42
2023-01-09T00:06:30.669Z,7.50
2023-01-09T00:08:57.393Z,7.55
2023-01-09T00:11:23.761Z,7.58
2023-01-09T00:13:50.186Z,7.58
2023-01-09T00:16:17.069Z,7.62
2023-01-09T00:18:43.523Z,7.69
2023-01-09T00:21:11.614Z,7.65
2023-01-09T00:23:38.316Z,7.71
2023-01-09T00:26:09.996Z,7.71
2023-01-09T00:28:37.029Z,7.75
2023-01-09T00:31:05.003Z,7.78
2023-01-09T00:33:36.714Z,7.69
2023-01-09T00:36:03.344Z,7.73
2023-01-09T00:38:29.757Z,7.74
2023-01-09T00:40:56.405Z,7.78
2023-01-09T00:43:25.094Z,7.70
2023-01-09T00:45:51.562Z,7.73
2023-01-09T00:48:26.829Z,7.70
2023-01-09T00:50:55.271Z,7.71
2023-01-09T00:53:23.343Z,7.70
2023-01-09T00:55:51.421Z,7.67
2023-01-09T00:58:18.680Z,7.66
2023-01-09T01:00:45.402Z,7.69
2023-01-09T01:03:11.905Z,7.69
2023-01-09T01:05:56.668Z,7.68
2023-01-09T01:08:23.056Z,7.66
2023-01-09T01:10:49.587Z,7.63
2023-01-09T01:13:16.185Z,7.62
2023-01-09T01:15:43.941Z,7.59
2023-01-09T01:18:11.609Z,7.62
2023-01-09T01:20:40.890Z,7.58
2023-01-09T01:23:07.319Z,7.56
2023-01-09T01:25:36.932Z,7.53
2023-01-09T01:28:03.381Z,7.55
2023-01-09T01:30:31.241Z,7.54
2023-01-09T01:32:57.559Z,7.60
2023-01-09T01:35:24.095Z,7.56
2023-01-09T01:37:50.420Z,7.54
2023-01-09T01:40:17.031Z,7.48
2023-01-09T01:42:51.337Z,7.47
2023-01-09T01:45:19.592Z,7.48
2023-01-09T01:47:59.925Z,7.47
2023-01-09T01:50:42.191Z,7.44
2023-01-09T01:53:13.841Z,7.43
2023-01-09T01:55:47.305Z,7.46
2023-01-09T01:58:14.817Z,7.46
2023-01-09T02:00:44.802Z,7.46
2023-01-09T02:03:12.413Z,7.44
2023-01-09T02:05:39.135Z,7.41
2023-01-09T02:08:07.056Z,7.39
2023-01-09T02:10:34.424Z,7.37
2023-01-09T02:13:01.996Z,7.34
2023-01-09T02:15:30.319Z,7.34
2023-01-09T02:18:25.257Z,7.33
2023-01-09T02:21:05.787Z,7.31
2023-01-09T02:23:35.216Z,7.27
2023-01-09T02:26:14.655Z,7.25
2023-01-09T02:28:50.585Z,7.20
2023-01-09T02:31:49.137Z,7.18
2023-01-09T02:34:22.502Z,7.12
2023-01-09T02:37:09.711Z,7.08
2023-01-09T02:39:38.062Z,7.06
2023-01-09T02:42:18.040Z,7.02
2023-01-09T02:44:44.522Z,6.98
2023-01-09T02:47:16.936Z,6.97
2023-01-09T02:49:46.652Z,6.92
2023-01-09T02:52:34.024Z,6.92
2023-01-09T02:55:17.704Z,6.86
2023-01-09T02:58:05.179Z,6.85
2023-01-09T03:01:04.827Z,6.82
2023-01-09T03:03:37.039Z,6.82
2023-01-09T03:06:10.124Z,6.81
2023-01-09T03:08:45.823Z,6.78
2023-01-09T03:11:12.202Z,6.79
2023-01-09T03:13:50.677Z,6.78
2023-01-09T03:16:20.986Z,6.78
2023-01-09T03:18:49.266Z,6.77
2023-01-09T03:21:16.388Z,6.75
2023-01-09T03:23:57.502Z,6.76
2023-01-09T03:26:24.398Z,6.78
2023-01-09T03:28:51.417Z,6.73
2023-01-09T03:31:18.226Z,6.72
2023-01-09T03:33:44.872Z,6.73
2023-01-09T03:36:12.777Z,6.73
2023-01-09T03:38:39.222Z,6.73
2023-01-09T03:41:06.083Z,6.67
2023-01-09T03:43:32.464Z,6.66
2023-01-09T03:45:59.195Z,6.64
2023-01-09T03:48:25.619Z,6.63
2023-01-09T03:50:52.851Z,6.56
2023-01-09T03:53:19.993Z,6.59
2023-01-09T03:55:47.596Z,6.57
2023-01-09T03:58:14.682Z,6.56
2023-01-09T04:00:41.547Z,6.51
2023-01-09T04:03:08.942Z,6.49
2023-01-09T04:05:35.780Z,6.47
2023-01-09T04:08:05.921Z,6.44
2023-01-09T04:10:32.350Z,6.48
2023-01-09T04:12:59.083Z,6.46
2023-01-09T04:15:25.774Z,6.40
2023-01-09T04:17:52.495Z,6.40
2023-01-09T04:20:19.049Z,6.44
2023-01-09T04:22:45.526Z,6.39
2023-01-09T04:25:12.137Z,6.42
2023-01-09T04:27:38.568Z,6.38
2023-01-09T04:30:05.829Z,6.36
2023-01-09T04:32:32.275Z,6.36
2023-01-09T04:34:58.683Z,6.33
2023-01-09T04:37:25.102Z,6.37
2023-01-09T04:39:52.326Z,6.35
2023-01-09T04:42:18.673Z,6.41
2023-01-09T04:44:45.055Z,6.36
2023-01-09T04:47:13.459Z,6.31
2023-01-09T04:49:40.149Z,6.29
2023-01-09T04:52:06.517Z,6.31
2023-01-09T04:54:34.343Z,6.25
2023-01-09T04:57:00.865Z,6.28
2023-01-09T04:59:28.400Z,6.23
2023-01-09T05:01:56.110Z,6.29
2023-01-09T05:04:22.694Z,6.28
2023-01-09T05:06:49.161Z,6.19
2023-01-09T05:09:15.578Z,6.20
2023-01-09T05:11:45.647Z,6.15
2023-01-09T05:14:13.352Z,6.17
2023-01-09T05:16:40.043Z,6.11
2023-01-09T05:19:06.533Z,6.12
2023-01-09T05:21:32.931Z,6.03
2023-01-09T05:23:59.322Z,5.96
2023-01-09T05:26:25.999Z,5.94
2023-01-09T05:28:53.381Z,5.91
2023-01-09T05:31:21.369Z,5.92
2023-01-09T05:33:47.761Z,5.86
2023-01-09T05:36:14.219Z,5.89
2023-01-09T05:38:40.756Z,5.92
2023-01-09T05:41:07.495Z,5.98
2023-01-09T05:43:34.194Z,5.94
2023-01-09T05:46:00.582Z,5.96
2023-01-09T05:48:26.965Z,5.93
2023-01-09T05:50:53.289Z,5.96
2023-01-09T05:53:19.642Z,5.94
2023-01-09T05:55:45.961Z,5.88
2023-01-09T05:58:12.793Z,5.85
2023-01-09T06:00:39.187Z,5.81
2023-01-09T06:03:05.683Z,5.83
2023-01-09T06:05:32.120Z,5.79
2023-01-09T06:07:58.516Z,5.69
2023-01-09T06:10:24.932Z,5.68
2023-01-09T06:12:51.779Z,5.66
2023-01-09T06:15:20.357Z,5.66
2023-01-09T06:17:46.761Z,5.68
2023-01-09T06:20:13.140Z,5.66
2023-01-09T06:22:39.607Z,5.73
2023-01-09T06:25:06.333Z,5.66
2023-01-09T06:27:32.686Z,5.70
2023-01-09T06:29:59.089Z,5.72
2023-01-09T06:32:25.448Z,5.79
2023-01-09T06:34:51.802Z,5.70
2023-01-09T06:37:18.194Z,5.70
2023-01-09T06:39:44.534Z,5.85
2023-01-09T06:42:10.986Z,5.86
2023-01-09T06:44:37.367Z,5.86
2023-01-09T06:47:04.356Z,5.83
2023-01-09T06:49:30.888Z,5.91
2023-01-09T06:51:57.305Z,5.92
2023-01-09T06:54:23.721Z,5.93
2023-01-09T06:56:50.046Z,5.97
2023-01-09T06:59:16.469Z,5.93
2023-01-09T07:01:42.933Z,5.93
2023-01-09T07:04:12.738Z,5.88
2023-01-09T07:06:39.167Z,5.94
2023-01-09T07:09:06.077Z,5.96
2023-01-09T07:11:32.819Z,6.07
2023-01-09T07:13:59.235Z,6.01
2023-01-09T07:16:25.620Z,6.05
2023-01-09T07:18:52.536Z,6.06
2023-01-09T07:21:18.881Z,6.05
2023-01-09T07:23:45.245Z,5.96
2023-01-09T07:26:11.613Z,5.95
2023-01-09T07:28:38.015Z,5.98
2023-01-09T07:31:07.228Z,5.93
2023-01-09T07:33:34.384Z,5.94
2023-01-09T07:36:00.794Z,5.96
2023-01-09T07:38:27.149Z,6.05
2023-01-09T07:40:53.584Z,6.04
2023-01-09T07:43:19.954Z,5.99
2023-01-09T07:45:46.357Z,6.07
2023-01-09T07:48:12.750Z,6.09
2023-01-09T07:50:39.098Z,6.11
2023-01-09T07:53:05.497Z,6.07
2023-01-09T07:55:31.887Z,6.06
2023-01-09T07:57:58.281Z,6.05
2023-01-09T08:00:24.614Z,6.08
2023-01-09T08:02:52.915Z,6.12
2023-01-09T08:05:19.949Z,6.10
2023-01-09T08:07:46.552Z,6.12
2023-01-09T08:10:12.988Z,6.09
2023-01-09T08:12:42.858Z,6.07
2023-01-09T08:15:09.811Z,6.09
2023-01-09T08:17:36.744Z,6.10
2023-01-09T08:20:03.451Z,6.14
2023-01-09T08:22:29.829Z,6.21
2023-01-09T08:24:56.214Z,6.21
2023-01-09T08:27:22.766Z,6.25
2023-01-09T08:29:49.234Z,6.32
2023-01-09T08:32:15.570Z,6.41
2023-01-09T08:34:41.925Z,6.42
2023-01-09T08:37:08.320Z,6.45
2023-01-09T08:39:35.997Z,6.47
2023-01-09T08:42:20.799Z,6.42
2023-01-09T08:45:05.544Z,6.41
2023-01-09T08:47:34.626Z,6.40
2023-01-09T08:50:01.225Z,6.48
2023-01-09T08:52:30.433Z,6.46
2023-01-09T08:54:57.194Z,6.50
2023-01-09T08:57:23.697Z,6.60
2023-01-09T08:59:50.415Z,6.66
2023-01-09T09:02:16.995Z,6.71
2023-01-09T09:04:43.466Z,6.72
2023-01-09T09:07:09.822Z,6.69
2023-01-09T09:09:36.220Z,6.75
2023-01-09T09:12:02.634Z,6.77
2023-01-09T09:14:47.785Z,6.71
2023-01-09T09:17:14.285Z,6.70
2023-01-09T09:19:42.487Z,6.77
2023-01-09T09:22:08.884Z,6.76
2023-01-09T09:24:35.266Z,6.77
2023-01-09T09:27:01.646Z,6.81
2023-01-09T09:29:28.052Z,6.81
2023-01-09T09:31:54.538Z,6.86
2023-01-09T09:34:21.121Z,6.84
2023-01-09T09:36:47.682Z,6.97
2023-01-09T09:39:14.148Z,6.95
2023-01-09T09:42:18.756Z,6.90
2023-01-09T09:44:57.881Z,6.86
2023-01-09T09:47:45.899Z,6.77
2023-01-09T09:50:27.710Z,6.57
2023-01-09T09:53:12.383Z,6.49
2023-01-09T09:55:40.483Z,6.51
2023-01-09T09:58:14.463Z,6.46
2023-01-09T10:00:41.101Z,6.51
2023-01-09T10:03:18.342Z,6.46
2023-01-09T10:05:48.281Z,6.48
2023-01-09T10:08:46.481Z,6.48
2023-01-09T10:11:22.120Z,6.51
2023-01-09T10:14:16.088Z,6.58
2023-01-09T10:16:57.795Z,6.64
2023-01-09T10:19:43.884Z,6.68
2023-01-09T10:22:17.198Z,6.67
2023-01-09T10:25:00.731Z,6.64
2023-01-09T10:27:31.097Z,6.65
2023-01-09T10:30:24.166Z,6.66
2023-01-09T10:33:09.630Z,6.69
2023-01-09T10:35:51.124Z,6.66
2023-01-09T10:38:22.249Z,6.69
2023-01-09T10:41:09.671Z,6.72
2023-01-09T10:43:43.468Z,6.70
2023-01-09T10:46:12.231Z,6.66
2023-01-09T10:48:42.953Z,6.66
2023-01-09T10:51:39.504Z,6.71
2023-01-09T10:54:12.829Z,6.82
2023-01-09T10:56:42.208Z,6.88
2023-01-09T10:59:08.981Z,6.88
2023-01-09T11:01:38.179Z,6.88
2023-01-09T11:04:31.799Z,6.86
2023-01-09T11:07:12.356Z,6.94
2023-01-09T11:10:01.887Z,7.11
2023-01-09T11:12:30.257Z,7.26
2023-01-09T11:15:19.515Z,7.35
2023-01-09T11:17:51.102Z,7.48
2023-01-09T11:20:26.087Z,7.50
2023-01-09T11:22:57.514Z,7.55
2023-01-09T11:25:25.999Z,7.59
2023-01-09T11:28:05.091Z,7.69
2023-01-09T11:30:36.355Z,8.03
2023-01-09T11:33:15.187Z,7.89
2023-01-09T11:36:02.054Z,7.87
2023-01-09T11:38:30.196Z,8.04
2023-01-09T11:40:59.824Z,8.13
2023-01-09T11:43:30.825Z,7.96
2023-01-09T11:46:01.379Z,8.05
2023-01-09T11:48:29.676Z,8.09
2023-01-09T11:50:58.504Z,8.05
2023-01-09T11:53:26.182Z,7.96
2023-01-09T11:55:57.061Z,7.79
2023-01-09T11:58:23.451Z,7.77
2023-01-09T12:01:15.708Z,7.76
2023-01-09T12:03:55.046Z,7.67
2023-01-09T12:06:31.663Z,7.67
2023-01-09T12:09:09.165Z,7.67
2023-01-09T12:11:38.556Z,7.66
2023-01-09T12:14:38.937Z,7.60
2023-01-09T12:17:16.747Z,7.50
2023-01-09T12:19:55.724Z,7.44
2023-01-09T12:22:30.936Z,7.38
2023-01-09T12:25:13.521Z,7.26
2023-01-09T12:27:53.144Z,7.27
2023-01-09T12:30:45.687Z,7.20
2023-01-09T12:33:33.985Z,7.20
2023-01-09T12:36:13.081Z,7.17
2023-01-09T12:38:55.324Z,7.16
2023-01-09T12:41:44.185Z,7.17
2023-01-09T12:44:34.941Z,7.13
2023-01-09T12:47:11.985Z,7.20
2023-01-09T12:49:56.091Z,7.31
2023-01-09T12:52:25.349Z,7.53
2023-01-09T12:55:14.796Z,7.60
2023-01-09T12:57:44.045Z,7.97
2023-01-09T13:00:15.154Z,8.11
2023-01-09T13:03:07.276Z,8.17
2023-01-09T13:05:43.160Z,8.04
2023-01-09T13:08:17.107Z,7.90
2023-01-09T13:10:49.517Z,7.87
2023-01-09T13:13:31.006Z,7.81
2023-01-09T13:15:59.578Z,7.74
2023-01-09T13:18:34.187Z,7.63
2023-01-09T13:21:01.186Z,7.56
2023-01-09T13:23:56.698Z,7.58
2023-01-09T13:26:32.517Z,7.64
2023-01-09T13:29:03.089Z,7.64
2023-01-09T13:32:05.594Z,7.69
2023-01-09T13:34:34.891Z,7.69
2023-01-09T13:37:01.424Z,7.61
2023-01-09T13:39:32.233Z,7.58
2023-01-09T13:42:19.546Z,7.59
2023-01-09T13:44:47.615Z,7.57
2023-01-09T13:47:18.018Z,7.58
2023-01-09T13:49:47.498Z,7.48
2023-01-09T13:52:36.894Z,7.43
2023-01-09T13:55:14.605Z,7.39
2023-01-09T13:58:02.698Z,7.30
2023-01-09T14:00:28.969Z,7.33
2023-01-09T14:02:56.781Z,7.32
2023-01-09T14:05:23.037Z,7.32
2023-01-09T14:07:50.756Z,7.32
2023-01-09T14:10:26.237Z,7.36
2023-01-09T14:12:55.063Z,7.39
2023-01-09T14:15:37.734Z,7.43
2023-01-09T14:18:06.369Z,7.44
2023-01-09T14:20:38.314Z,7.44
2023-01-09T14:23:27.997Z,7.38
2023-01-09T14:25:52.352Z,7.33
2023-01-09T14:28:20.537Z,7.31
2023-01-09T14:30:52.576Z,7.27
2023-01-09T14:33:19.076Z,7.25
2023-01-09T14:36:24.005Z,7.19
2023-01-09T14:38:55.047Z,7.18
2023-01-09T14:41:51.895Z,7.18
2023-01-09T14:44:34.506Z,7.19
2023-01-09T14:47:17.392Z,7.24
2023-01-09T14:49:47.155Z,7.12
2023-01-09T14:52:18.401Z,7.14
2023-01-09T14:54:44.844Z,7.07
2023-01-09T14:57:28.948Z,7.00
2023-01-09T15:00:04.133Z,6.97
2023-01-09T15:02:33.218Z,6.93
2023-01-09T15:05:05.827Z,6.91
2023-01-09T15:07:40.427Z,6.90
2023-01-09T15:10:07.596Z,6.88
2023-01-09T15:12:34.126Z,6.89
2023-01-09T15:15:01.632Z,6.88
2023-01-09T15:17:34.283Z,6.91
2023-01-09T15:20:02.994Z,6.94
2023-01-09T15:22:31.588Z,6.99
2023-01-09T15:24:58.942Z,6.95
2023-01-09T15:27:25.885Z,6.92
2023-01-09T15:29:52.809Z,6.92
2023-01-09T15:32:25.148Z,6.86
2023-01-09T15:34:52.014Z,6.83
2023-01-09T15:37:33.259Z,6.77
2023-01-09T15:40:01.591Z,6.78
2023-01-09T15:42:49.247Z,6.70
2023-01-09T15:45:27.989Z,6.67
2023-01-09T15:47:55.174Z,6.72
2023-01-09T15:50:27.852Z,6.71
2023-01-09T15:52:55.754Z,6.71
2023-01-09T15:55:35.200Z,6.66
2023-01-09T15:58:03.833Z,6.70
2023-01-09T16:00:33.369Z,6.68
2023-01-09T16:03:09.363Z,6.68
2023-01-09T16:05:48.480Z,6.64
2023-01-09T16:08:24.138Z,6.59
2023-01-09T16:10:56.530Z,6.58
2023-01-09T16:13:24.202Z,6.50
2023-01-09T16:15:50.949Z,6.51
2023-01-09T16:18:23.013Z,6.49
2023-01-09T16:20:49.668Z,6.43
2023-01-09T16:23:25.029Z,6.44
2023-01-09T16:26:03.084Z,6.40
2023-01-09T16:28:30.694Z,6.40
2023-01-09T16:30:59.937Z,6.37
2023-01-09T16:33:28.187Z,6.45
2023-01-09T16:35:54.735Z,6.42
2023-01-09T16:38:22.503Z,6.46
2023-01-09T16:41:39.901Z,6.41
2023-01-09T16:44:09.369Z,6.34
2023-01-09T16:46:38.341Z,6.29
2023-01-09T16:49:08.773Z,6.39
2023-01-09T16:51:35.181Z,6.35
2023-01-09T16:54:01.573Z,6.31
2023-01-09T16:56:29.692Z,6.32
2023-01-09T16:58:56.117Z,6.31
2023-01-09T17:01:22.814Z,6.29
2023-01-09T17:03:49.663Z,6.28
2023-01-09T17:06:29.246Z,6.26
2023-01-09T17:08:55.726Z,6.23
2023-01-09T17:11:28.112Z,6.22
2023-01-09T17:13:54.561Z,6.23
2023-01-09T17:16:21.205Z,6.22
2023-01-09T17:18:47.604Z,6.21
2023-01-09T17:21:19.967Z,6.20
2023-01-09T17:23:46.905Z,6.21
2023-01-09T17:26:37.999Z,6.19
2023-01-09T17:29:04.617Z,6.18
2023-01-09T17:31:31.343Z,6.16
2023-01-09T17:33:58.075Z,6.12
2023-01-09T17:36:28.145Z,6.16
2023-01-09T17:38:55.019Z,6.17
2023-01-09T17:41:23.174Z,6.16
2023-01-09T17:43:49.713Z,6.15
2023-01-09T17:46:19.207Z,6.12
2023-01-09T17:48:46.200Z,6.10
2023-01-09T17:51:12.563Z,6.11
2023-01-09T17:53:38.895Z,6.02
2023-01-09T17:56:05.407Z,5.97
2023-01-09T17:58:32.120Z,5.95
2023-01-09T18:00:59.371Z,5.91
2023-01-09T18:03:30.965Z,5.89
2023-01-09T18:05:57.367Z,5.89
2023-01-09T18:08:23.728Z,5.86
2023-01-09T18:10:50.587Z,5.82
2023-01-09T18:13:17.104Z,5.84
2023-01-09T18:15:44.501Z,5.85
2023-01-09T18:18:11.538Z,5.86
2023-01-09T18:20:41.572Z,5.79
2023-01-09T18:23:08.770Z,5.75
2023-01-09T18:25:38.969Z,5.73
2023-01-09T18:28:05.412Z,5.70
2023-01-09T18:30:31.833Z,5.70
2023-01-09T18:32:58.349Z,5.71
2023-01-09T18:35:24.733Z,5.71
2023-01-09T18:37:51.093Z,5.69
2023-01-09T18:40:17.507Z,5.68
2023-01-09T18:42:45.334Z,5.69
2023-01-09T18:45:11.855Z,5.64
2023-01-09T18:47:38.298Z,5.56
2023-01-09T18:50:05.135Z,5.55
2023-01-09T18:52:31.476Z,5.55
2023-01-09T18:54:57.822Z,5.54
2023-01-09T18:57:24.250Z,5.58
2023-01-09T18:59:50.578Z,5.58
2023-01-09T19:02:25.329Z,5.51
2023-01-09T19:04:51.865Z,5.45
2023-01-09T19:07:18.570Z,5.43
2023-01-09T19:09:45.252Z,5.40
2023-01-09T19:12:11.991Z,5.41
2023-01-09T19:14:38.559Z,5.35
2023-01-09T19:17:05.108Z,5.32
2023-01-09T19:19:31.565Z,5.33
2023-01-09T19:21:57.937Z,5.34
2023-01-09T19:24:24.625Z,5.39
2023-01-09T19:26:51.619Z,5.38
2023-01-09T19:29:18.074Z,5.42
2023-01-09T19:31:48.424Z,5.36
2023-01-09T19:34:16.013Z,5.37
2023-01-09T19:36:47.177Z,5.33
2023-01-09T19:39:14.280Z,5.26
2023-01-09T19:41:40.784Z,5.23
2023-01-09T19:44:07.770Z,5.17
2023-01-09T19:46:35.395Z,5.11
2023-01-09T19:49:04.669Z,5.13
2023-01-09T19:51:32.444Z,5.09
2023-01-09T19:56:28.200Z,5.09
2023-01-09T19:58:59.282Z,5.07
2023-01-09T20:01:31.113Z,5.00
2023-01-09T20:04:02.579Z,4.99
2023-01-09T20:06:30.695Z,4.98
2023-01-09T20:08:59.283Z,4.96
2023-01-09T20:11:27.553Z,4.84
2023-01-09T20:13:55.605Z,4.82
2023-01-09T20:16:23.291Z,4.79
2023-01-09T20:18:50.283Z,4.79
2023-01-09T20:21:18.701Z,4.78
2023-01-09T20:23:45.278Z,4.73
2023-01-09T20:26:11.848Z,4.74
2023-01-09T20:28:38.775Z,4.74
2023-01-09T20:31:05.851Z,4.78
2023-01-09T20:33:32.250Z,4.78
2023-01-09T20:36:02.173Z,4.71
2023-01-09T20:38:28.546Z,4.65
2023-01-09T20:40:54.952Z,4.63
2023-01-09T20:43:21.321Z,4.60
2023-01-09T20:45:47.776Z,4.59
2023-01-09T20:48:14.486Z,4.64
2023-01-09T20:50:40.976Z,4.62
2023-01-09T20:53:08.001Z,4.57
2023-01-09T20:55:34.430Z,4.57
2023-01-09T20:58:00.874Z,4.54
2023-01-09T21:00:31.499Z,4.53
2023-01-09T21:02:59.119Z,4.55
2023-01-09T21:05:25.745Z,4.54
2023-01-09T21:07:52.187Z,4.51
2023-01-09T21:10:18.619Z,4.50
2023-01-09T21:12:45.028Z,4.48
2023-01-09T21:15:15.176Z,4.49
2023-01-09T21:17:41.845Z,4.46
2023-01-09T21:20:12.199Z,4.43
2023-01-09T21:22:39.062Z,4.43
2023-01-09T21:25:06.327Z,4.43
2023-01-09T21:27:36.300Z,4.36
2023-01-09T21:30:04.738Z,4.37
2023-01-09T21:32:32.784Z,4.38
2023-01-09T21:35:03.382Z,4.36
2023-01-09T21:37:31.667Z,4.35
2023-01-09T21:39:58.036Z,4.34
2023-01-09T21:42:43.123Z,4.37
2023-01-09T21:45:37.384Z,4.36
2023-01-09T21:48:05.185Z,4.35
2023-01-09T21:50:33.161Z,4.37
2023-01-09T21:52:59.848Z,4.35
2023-01-09T21:55:26.308Z,4.37
2023-01-09T21:57:56.186Z,4.40
2023-01-09T22:00:23.504Z,4.42
2023-01-09T22:02:50.213Z,4.41
2023-01-09T22:05:17.042Z,4.40
2023-01-09T22:07:43.414Z,4.39
2023-01-09T22:10:10.121Z,4.36
2023-01-09T22:12:36.541Z,4.30
2023-01-09T22:15:03.128Z,4.23
2023-01-09T22:17:29.563Z,4.19
2023-01-09T22:19:55.949Z,4.16
2023-01-09T22:22:22.285Z,4.18
2023-01-09T22:24:50.175Z,4.16
2023-01-09T22:27:16.577Z,4.13
2023-01-09T22:29:42.903Z,4.07
2023-01-09T22:32:09.277Z,4.11
2023-01-09T22:34:35.692Z,4.12
2023-01-09T22:37:02.311Z,4.06
2023-01-09T22:39:28.666Z,4.07
2023-01-09T22:41:55.135Z,4.05
2023-01-09T22:44:21.569Z,3.98
2023-01-09T22:46:47.908Z,3.91
2023-01-09T22:49:14.336Z,3.83
2023-01-09T22:51:40.676Z,3.83
2023-01-09T22:54:07.029Z,3.96
2023-01-09T22:56:33.507Z,3.87
2023-01-09T22:59:00.924Z,3.83
2023-01-09T23:01:27.387Z,3.82
2023-01-09T23:03:53.765Z,3.77
2023-01-09T23:06:22.008Z,3.77
2023-01-09T23:08:53.138Z,3.77
2023-01-09T23:11:44.092Z,3.77
2023-01-09T23:14:11.707Z,3.86
2023-01-09T23:16:38.335Z,3.90
2023-01-09T23:19:14.274Z,3.89
2023-01-09T23:21:40.715Z,3.93
2023-01-09T23:24:07.452Z,3.86
2023-01-09T23:26:34.658Z,3.88
2023-01-09T23:29:01.578Z,3.79
2023-01-09T23:31:28.035Z,3.83
2023-01-09T23:33:54.432Z,3.92
2023-01-09T23:36:22.380Z,3.97
2023-01-09T23:38:49.458Z,4.21
2023-01-09T23:41:16.299Z,4.34
2023-01-09T23:43:43.829Z,4.41
2023-01-09T23:46:12.213Z,4.59
2023-01-09T23:48:38.567Z,4.73
2023-01-09T23:51:05.964Z,4.68
2023-01-09T23:53:32.922Z,4.69
2023-01-09T23:55:59.739Z,4.64
2023-01-09T23:58:27.396Z,4.65
